createdAt,value
2023-01-29T00:01:14.801Z,-8.80
2023-01-29T00:03:45.863Z,-9.00
2023-01-29T00:06:16.060Z,-9.10
2023-01-29T00:08:46.876Z,-9.00
2023-01-29T00:11:20.409Z,-9.30
2023-01-29T00:13:51.137Z,-9.40
2023-01-29T00:16:21.090Z,-9.30
2023-01-29T00:18:50.889Z,-9.60
2023-01-29T00:21:22.873Z,-9.40
2023-01-29T00:23:54.531Z,-9.60
2023-01-29T00:26:27.137Z,-9.30
2023-01-29T00:28:57.757Z,-9.10
2023-01-29T00:31:28.921Z,-9.30
2023-01-29T00:34:00.445Z,-9.40
2023-01-29T00:36:30.925Z,-9.40
2023-01-29T00:39:11.053Z,-9.50
2023-01-29T00:41:56.014Z,-9.30
2023-01-29T00:44:39.331Z,-9.50
2023-01-29T00:47:29.713Z,-9.10
2023-01-29T00:50:00.381Z,-9.40
2023-01-29T00:52:31.450Z,-8.70
2023-01-29T00:55:03.516Z,-8.80
2023-01-29T00:57:37.413Z,-9.10
2023-01-29T01:00:11.325Z,-8.80
2023-01-29T01:02:53.670Z,-8.50
2023-01-29T01:05:24.013Z,-8.80
2023-01-29T01:07:59.137Z,-8.50
2023-01-29T01:10:28.875Z,-8.30
2023-01-29T01:13:05.669Z,-8.20
2023-01-29T01:15:39.113Z,-8.90
2023-01-29T01:18:09.143Z,-8.60
2023-01-29T01:20:40.153Z,-8.90
2023-01-29T01:23:10.335Z,-9.10
2023-01-29T01:25:41.000Z,-8.90
2023-01-29T01:28:14.071Z,-8.90
2023-01-29T01:30:45.077Z,-8.90
2023-01-29T01:33:15.219Z,-9.00
2023-01-29T01:35:45.354Z,-8.50
2023-01-29T01:38:15.437Z,-8.60
2023-01-29T01:40:49.226Z,-8.50
2023-01-29T01:43:21.623Z,-8.70
2023-01-29T01:45:52.306Z,-8.70
2023-01-29T01:48:27.579Z,-8.60
2023-01-29T01:51:03.813Z,-8.90
2023-01-29T01:53:38.768Z,-8.80
2023-01-29T01:56:13.884Z,-9.10
2023-01-29T01:58:50.843Z,-8.70
2023-01-29T02:01:24.217Z,-8.90
2023-01-29T02:04:11.972Z,-8.80
2023-01-29T02:06:56.783Z,-9.20
2023-01-29T02:09:37.126Z,-8.90
2023-01-29T02:12:09.718Z,-9.00
2023-01-29T02:14:45.570Z,-9.20
2023-01-29T02:17:17.367Z,-9.30
2023-01-29T02:19:54.653Z,-8.80
2023-01-29T02:22:38.379Z,-9.10
2023-01-29T02:25:26.199Z,-9.40
2023-01-29T02:28:28.411Z,-9.30
2023-01-29T02:31:07.240Z,-9.10
2023-01-29T02:33:48.803Z,-9.10
2023-01-29T02:36:30.070Z,-9.10
2023-01-29T02:39:07.584Z,-9.10
2023-01-29T02:41:45.834Z,-9.10
2023-01-29T02:44:26.604Z,-9.40
2023-01-29T02:47:03.855Z,-9.60
2023-01-29T02:49:38.390Z,-9.10
2023-01-29T02:52:13.385Z,-9.50
2023-01-29T02:54:48.704Z,-9.80
2023-01-29T02:57:23.382Z,-9.60
2023-01-29T03:00:00.392Z,-9.40
2023-01-29T03:02:37.532Z,-9.70
2023-01-29T03:05:20.310Z,-9.40
2023-01-29T03:07:56.021Z,-9.50
2023-01-29T03:10:41.023Z,-9.60
2023-01-29T03:13:20.127Z,-9.30
2023-01-29T03:16:02.580Z,-9.50
2023-01-29T03:18:46.259Z,-9.60
2023-01-29T03:21:35.806Z,-9.40
2023-01-29T03:24:19.702Z,-9.50
2023-01-29T03:27:03.971Z,-9.60
2023-01-29T03:29:53.146Z,-9.20
2023-01-29T03:32:28.951Z,-9.20
2023-01-29T03:35:05.395Z,-9.00
2023-01-29T03:37:42.627Z,-9.40
2023-01-29T03:40:15.909Z,-9.30
2023-01-29T03:42:59.542Z,-9.60
2023-01-29T03:45:37.879Z,-9.30
2023-01-29T03:48:14.236Z,-9.30
2023-01-29T03:50:54.067Z,-9.20
2023-01-29T03:53:32.723Z,-9.20
2023-01-29T03:56:07.558Z,-9.30
2023-01-29T03:58:42.433Z,-9.70
2023-01-29T04:01:19.697Z,-9.60
2023-01-29T04:03:56.462Z,-9.80
2023-01-29T04:06:32.422Z,-9.40
2023-01-29T04:09:15.574Z,-9.60
2023-01-29T04:11:52.625Z,-9.40
2023-01-29T04:14:23.845Z,-8.90
2023-01-29T04:17:00.109Z,-9.00
2023-01-29T04:19:48.304Z,-8.60
2023-01-29T04:22:24.049Z,-8.40
2023-01-29T04:24:55.019Z,-8.60
2023-01-29T04:27:32.711Z,-8.30
2023-01-29T04:30:17.428Z,-8.20
2023-01-29T04:33:00.756Z,-7.70
2023-01-29T04:35:46.236Z,-7.80
2023-01-29T04:38:29.834Z,-7.60
2023-01-29T04:41:08.122Z,-7.80
2023-01-29T04:43:44.607Z,-7.80
2023-01-29T04:46:20.434Z,-7.90
2023-01-29T04:49:05.410Z,-7.50
2023-01-29T04:51:47.609Z,-7.30
2023-01-29T04:54:25.725Z,-7.10
2023-01-29T04:57:01.703Z,-6.90
2023-01-29T04:59:36.410Z,-6.90
2023-01-29T05:02:10.443Z,-6.80
2023-01-29T05:04:44.071Z,-6.90
2023-01-29T05:07:19.510Z,-7.10
2023-01-29T05:09:50.282Z,-6.90
2023-01-29T05:12:21.362Z,-6.90
2023-01-29T05:14:53.699Z,-7.10
2023-01-29T05:17:24.700Z,-6.90
2023-01-29T05:19:54.593Z,-6.80
2023-01-29T05:22:28.689Z,-6.80
2023-01-29T05:24:58.825Z,-6.70
2023-01-29T05:27:47.195Z,-6.70
2023-01-29T05:30:18.252Z,-6.40
2023-01-29T05:32:48.204Z,-6.70
2023-01-29T05:35:19.504Z,-6.20
2023-01-29T05:37:51.880Z,-6.10
2023-01-29T05:40:22.178Z,-6.20
2023-01-29T05:42:52.121Z,-5.80
2023-01-29T05:45:23.047Z,-5.30
2023-01-29T05:47:52.877Z,-5.20
2023-01-29T05:50:23.386Z,-5.10
2023-01-29T05:53:00.200Z,-4.80
2023-01-29T05:55:31.125Z,-4.60
2023-01-29T05:58:02.053Z,-4.60
2023-01-29T06:00:33.790Z,-4.80
2023-01-29T06:03:03.735Z,-4.60
2023-01-29T06:05:35.213Z,-4.50
2023-01-29T06:08:09.287Z,-4.80
2023-01-29T06:10:39.906Z,-4.30
2023-01-29T06:13:09.748Z,-4.60
2023-01-29T06:15:42.995Z,-4.60
2023-01-29T06:18:12.923Z,-4.60
2023-01-29T06:20:43.194Z,-4.50
2023-01-29T06:23:15.651Z,-4.70
2023-01-29T06:25:45.920Z,-4.20
2023-01-29T06:28:16.328Z,-4.40
2023-01-29T06:30:46.919Z,-4.40
2023-01-29T06:33:17.562Z,-4.60
2023-01-29T06:35:47.747Z,-4.30
2023-01-29T06:38:20.668Z,-4.00
2023-01-29T06:40:50.991Z,-4.40
2023-01-29T06:43:21.390Z,-4.10
2023-01-29T06:45:52.521Z,-4.40
2023-01-29T06:48:23.229Z,-4.30
2023-01-29T06:50:55.886Z,-4.20
2023-01-29T06:53:28.717Z,-4.40
2023-01-29T06:55:59.164Z,-4.40
2023-01-29T06:58:29.523Z,-4.20
2023-01-29T07:01:06.433Z,-4.30
2023-01-29T07:03:36.687Z,-4.40
2023-01-29T07:06:08.327Z,-3.90
2023-01-29T07:08:43.021Z,-3.80
2023-01-29T07:11:15.982Z,-3.90
2023-01-29T07:13:46.051Z,-3.60
2023-01-29T07:16:17.259Z,-4.10
2023-01-29T07:18:47.566Z,-3.80
2023-01-29T07:21:18.183Z,-4.10
2023-01-29T07:23:51.610Z,-3.80
2023-01-29T07:26:22.114Z,-4.00
2023-01-29T07:28:52.339Z,-3.80
2023-01-29T07:31:23.377Z,-3.70
2023-01-29T07:33:53.665Z,-3.80
2023-01-29T07:36:24.587Z,-3.60
2023-01-29T07:38:57.647Z,-3.90
2023-01-29T07:41:30.311Z,-3.60
2023-01-29T07:44:02.832Z,-3.60
2023-01-29T07:46:33.471Z,-3.60
2023-01-29T07:49:03.895Z,-3.60
2023-01-29T07:51:34.663Z,-3.60
2023-01-29T07:54:07.669Z,-3.90
2023-01-29T07:56:38.519Z,-3.60
2023-01-29T07:59:11.710Z,-3.60
2023-01-29T08:01:41.561Z,-3.70
2023-01-29T08:04:11.668Z,-3.60
2023-01-29T08:06:42.885Z,-3.40
2023-01-29T08:09:16.702Z,-3.90
2023-01-29T08:11:47.212Z,-3.60
2023-01-29T08:14:17.062Z,-3.50
2023-01-29T08:16:47.634Z,-3.30
2023-01-29T08:19:17.968Z,-3.30
2023-01-29T08:21:48.686Z,-3.20
2023-01-29T08:24:21.430Z,-3.20
2023-01-29T08:26:51.712Z,-3.00
2023-01-29T08:29:22.021Z,-3.00
2023-01-29T08:31:52.571Z,-3.00
2023-01-29T08:34:22.450Z,-3.30
2023-01-29T08:36:53.772Z,-3.20
2023-01-29T08:39:26.211Z,-3.10
2023-01-29T08:41:56.715Z,-2.90
2023-01-29T08:44:26.943Z,-2.90
2023-01-29T08:46:57.055Z,-2.80
2023-01-29T08:49:26.972Z,-2.90
2023-01-29T08:51:58.348Z,-3.10
2023-01-29T08:54:30.949Z,-2.70
2023-01-29T08:57:00.839Z,-3.00
2023-01-29T08:59:30.688Z,-3.00
2023-01-29T09:02:00.836Z,-3.00
2023-01-29T09:04:30.623Z,-3.00
2023-01-29T09:07:01.404Z,-3.10
2023-01-29T09:09:33.799Z,-3.20
2023-01-29T09:12:05.659Z,-3.20
2023-01-29T09:14:35.640Z,-3.40
2023-01-29T09:17:05.459Z,-3.10
2023-01-29T09:19:37.130Z,-3.20
2023-01-29T09:22:07.330Z,-3.30
2023-01-29T09:24:39.911Z,-3.10
2023-01-29T09:27:10.387Z,-3.30
2023-01-29T09:29:40.660Z,-2.90
2023-01-29T09:32:10.468Z,-2.80
2023-01-29T09:34:40.316Z,-2.90
2023-01-29T09:37:12.126Z,-2.70
2023-01-29T09:39:44.591Z,-2.60
2023-01-29T09:42:21.712Z,-2.80
2023-01-29T09:45:01.935Z,-2.70
2023-01-29T09:47:34.445Z,-2.50
2023-01-29T09:50:08.487Z,-2.40
2023-01-29T09:52:41.335Z,-2.20
2023-01-29T09:55:21.436Z,-2.50
2023-01-29T09:57:55.737Z,-2.60
2023-01-29T10:00:29.315Z,-2.30
2023-01-29T10:03:20.622Z,-2.50
2023-01-29T10:06:13.160Z,-2.50
2023-01-29T10:09:27.625Z,-2.50
2023-01-29T10:12:10.672Z,-2.70
2023-01-29T10:14:45.498Z,-2.30
2023-01-29T10:17:31.184Z,-2.20
2023-01-29T10:20:17.203Z,-2.60
2023-01-29T10:23:03.862Z,-2.40
2023-01-29T10:25:39.612Z,-2.40
2023-01-29T10:28:20.088Z,-2.10
2023-01-29T10:30:53.224Z,-2.50
2023-01-29T10:33:48.809Z,-2.30
2023-01-29T10:36:29.435Z,-2.30
2023-01-29T10:39:00.274Z,-2.40
2023-01-29T10:41:55.808Z,-2.50
2023-01-29T10:44:40.660Z,-2.60
2023-01-29T10:47:25.275Z,-2.50
2023-01-29T10:50:20.217Z,-2.50
2023-01-29T10:53:05.076Z,-2.50
2023-01-29T10:55:49.045Z,-2.70
2023-01-29T10:58:33.100Z,-2.50
2023-01-29T11:01:05.842Z,-2.60
2023-01-29T11:03:37.473Z,-2.60
2023-01-29T11:06:18.062Z,-2.60
2023-01-29T11:08:55.778Z,-2.60
2023-01-29T11:11:34.813Z,-2.70
2023-01-29T11:14:09.766Z,-2.50
2023-01-29T11:16:47.831Z,-2.60
2023-01-29T11:19:19.592Z,-2.50
2023-01-29T11:22:01.191Z,-2.30
2023-01-29T11:24:32.515Z,-2.20
2023-01-29T11:27:04.552Z,-2.10
2023-01-29T11:29:44.266Z,-2.40
2023-01-29T11:32:28.918Z,-2.40
2023-01-29T11:35:04.311Z,-2.40
2023-01-29T11:37:41.341Z,-2.20
2023-01-29T11:40:36.796Z,-2.40
2023-01-29T11:43:31.123Z,-2.20
2023-01-29T11:46:05.188Z,-2.30
2023-01-29T11:48:46.949Z,-2.10
2023-01-29T11:51:26.249Z,-2.30
2023-01-29T11:54:00.037Z,-2.30
2023-01-29T11:56:33.141Z,-1.90
2023-01-29T11:59:06.090Z,-2.10
2023-01-29T12:01:39.753Z,-2.40
2023-01-29T12:04:23.916Z,-1.90
2023-01-29T12:06:55.751Z,-2.10
2023-01-29T12:09:30.527Z,-1.90
2023-01-29T12:12:21.633Z,-1.60
2023-01-29T12:15:18.503Z,-2.00
2023-01-29T12:17:59.403Z,-2.10
2023-01-29T12:20:39.507Z,-1.90
2023-01-29T12:23:31.363Z,-1.90
2023-01-29T12:26:06.003Z,-1.90
2023-01-29T12:28:49.987Z,-1.90
2023-01-29T12:31:30.290Z,-1.90
2023-01-29T12:34:07.907Z,-1.60
2023-01-29T12:36:45.316Z,-1.70
2023-01-29T12:39:20.545Z,-2.10
2023-01-29T12:41:58.137Z,-1.70
2023-01-29T12:44:34.344Z,-1.60
2023-01-29T12:47:09.273Z,-1.70
2023-01-29T12:49:42.638Z,-1.40
2023-01-29T12:52:19.643Z,-1.40
2023-01-29T12:54:56.967Z,-1.40
2023-01-29T12:57:35.652Z,-1.30
2023-01-29T13:00:09.892Z,-1.40
2023-01-29T13:02:43.150Z,-1.40
2023-01-29T13:05:24.761Z,-1.50
2023-01-29T13:08:04.557Z,-1.80
2023-01-29T13:10:39.794Z,-1.50
2023-01-29T13:13:19.756Z,-1.70
2023-01-29T13:15:51.309Z,-1.90
2023-01-29T13:18:39.649Z,-1.70
2023-01-29T13:21:15.203Z,-1.70
2023-01-29T13:23:53.246Z,-1.60
2023-01-29T13:26:24.345Z,-1.80
2023-01-29T13:28:55.665Z,-1.70
2023-01-29T13:31:32.431Z,-1.40
2023-01-29T13:34:16.142Z,-1.40
2023-01-29T13:36:48.375Z,-1.70
2023-01-29T13:39:27.520Z,-1.50
2023-01-29T13:41:58.906Z,-1.70
2023-01-29T13:44:32.518Z,-1.50
2023-01-29T13:47:05.251Z,-1.70
2023-01-29T13:49:40.026Z,-1.70
2023-01-29T13:52:31.932Z,-1.90
2023-01-29T13:55:07.535Z,-1.70
2023-01-29T13:57:56.705Z,-1.60
2023-01-29T14:01:02.855Z,-1.90
2023-01-29T14:04:05.767Z,-1.70
2023-01-29T14:06:44.291Z,-1.50
2023-01-29T14:09:33.951Z,-1.80
2023-01-29T14:12:08.411Z,-1.90
2023-01-29T14:15:03.241Z,-1.80
2023-01-29T14:17:34.023Z,-1.50
2023-01-29T14:20:21.494Z,-1.70
2023-01-29T14:22:59.646Z,-1.60
2023-01-29T14:25:34.459Z,-1.90
2023-01-29T14:28:16.604Z,-1.80
2023-01-29T14:30:51.342Z,-1.90
2023-01-29T14:33:31.244Z,-1.60
2023-01-29T14:36:01.298Z,-1.80
2023-01-29T14:38:32.798Z,-1.90
2023-01-29T14:41:11.182Z,-1.80
2023-01-29T14:43:43.934Z,-1.90
2023-01-29T14:46:45.389Z,-1.70
2023-01-29T14:49:15.756Z,-1.80
2023-01-29T14:51:48.385Z,-1.60
2023-01-29T14:54:28.383Z,-1.70
2023-01-29T14:57:02.457Z,-1.90
2023-01-29T14:59:39.833Z,-1.90
2023-01-29T15:02:21.407Z,-1.60
2023-01-29T15:04:54.165Z,-1.80
2023-01-29T15:07:32.844Z,-1.80
2023-01-29T15:10:24.620Z,-1.60
2023-01-29T15:12:59.874Z,-1.80
2023-01-29T15:15:39.320Z,-1.80
2023-01-29T15:18:16.233Z,-1.80
2023-01-29T15:20:46.727Z,-1.90
2023-01-29T15:23:36.033Z,-1.60
2023-01-29T15:26:11.686Z,-1.70
2023-01-29T15:28:47.112Z,-2.00
2023-01-29T15:31:22.915Z,-1.90
2023-01-29T15:33:56.934Z,-1.90
2023-01-29T15:36:29.471Z,-1.90
2023-01-29T15:39:19.215Z,-1.70
2023-01-29T15:41:50.951Z,-1.90
2023-01-29T15:44:23.806Z,-2.10
2023-01-29T15:46:59.952Z,-1.60
2023-01-29T15:49:35.760Z,-2.00
2023-01-29T15:52:10.344Z,-2.10
2023-01-29T15:54:42.637Z,-1.90
2023-01-29T15:57:22.950Z,-2.20
2023-01-29T15:59:55.349Z,-2.10
2023-01-29T16:02:39.781Z,-1.90
2023-01-29T16:05:15.490Z,-2.20
2023-01-29T16:07:52.367Z,-2.00
2023-01-29T16:10:24.405Z,-1.90
2023-01-29T16:12:55.628Z,-2.10
2023-01-29T16:15:38.415Z,-1.80
2023-01-29T16:18:24.051Z,-2.00
2023-01-29T16:20:55.891Z,-2.10
2023-01-29T16:23:29.731Z,-1.90
2023-01-29T16:26:05.979Z,-2.10
2023-01-29T16:28:36.854Z,-2.20
2023-01-29T16:31:08.173Z,-2.20
2023-01-29T16:33:43.024Z,-2.00
2023-01-29T16:36:19.044Z,-2.00
2023-01-29T16:38:54.555Z,-2.00
2023-01-29T16:41:33.668Z,-2.00
2023-01-29T16:44:05.657Z,-2.00
2023-01-29T16:46:37.587Z,-2.10
2023-01-29T16:49:38.991Z,-2.10
2023-01-29T16:52:23.186Z,-2.20
2023-01-29T16:54:53.823Z,-2.20
2023-01-29T16:57:27.720Z,-2.20
2023-01-29T17:00:00.570Z,-2.10
2023-01-29T17:02:33.605Z,-2.10
2023-01-29T17:05:07.916Z,-2.10
2023-01-29T17:07:41.160Z,-1.90
2023-01-29T17:10:19.750Z,-2.10
2023-01-29T17:12:56.195Z,-1.90
2023-01-29T17:15:36.715Z,-2.10
2023-01-29T17:18:14.990Z,-1.90
2023-01-29T17:20:45.333Z,-2.10
2023-01-29T17:23:17.969Z,-2.10
2023-01-29T17:25:48.630Z,-1.90
2023-01-29T17:28:20.521Z,-2.20
2023-01-29T17:31:05.163Z,-2.10
2023-01-29T17:33:36.715Z,-2.30
2023-01-29T17:36:12.068Z,-2.00
2023-01-29T17:38:44.505Z,-1.90
2023-01-29T17:41:21.193Z,-2.10
2023-01-29T17:43:51.046Z,-1.90
2023-01-29T17:46:23.647Z,-1.90
2023-01-29T17:48:53.463Z,-2.10
2023-01-29T17:51:25.008Z,-2.10
2023-01-29T17:53:57.534Z,-2.10
2023-01-29T17:56:30.324Z,-1.80
2023-01-29T17:59:00.967Z,-2.00
2023-01-29T18:01:30.852Z,-2.10
2023-01-29T18:04:00.582Z,-2.00
2023-01-29T18:06:32.222Z,-2.00
2023-01-29T18:09:04.932Z,-2.00
2023-01-29T18:11:35.311Z,-2.10
2023-01-29T18:14:14.100Z,-2.20
2023-01-29T18:16:45.704Z,-2.20
2023-01-29T18:19:19.129Z,-2.00
2023-01-29T18:21:49.211Z,-2.10
2023-01-29T18:24:22.148Z,-2.20
2023-01-29T18:26:52.309Z,-2.10
2023-01-29T18:29:22.612Z,-1.90
2023-01-29T18:31:52.449Z,-2.00
2023-01-29T18:34:22.975Z,-2.00
2023-01-29T18:36:52.745Z,-2.10
2023-01-29T18:39:25.752Z,-1.80
2023-01-29T18:41:55.582Z,-1.90
2023-01-29T18:44:26.424Z,-2.10
2023-01-29T18:46:56.253Z,-2.10
2023-01-29T18:49:26.908Z,-1.90
2023-01-29T18:51:58.126Z,-2.20
2023-01-29T18:54:30.796Z,-2.10
2023-01-29T18:57:13.052Z,-2.20
2023-01-29T18:59:50.882Z,-2.00
2023-01-29T19:02:21.950Z,-2.10
2023-01-29T19:04:52.981Z,-1.90
2023-01-29T19:07:22.805Z,-2.10
2023-01-29T19:09:56.406Z,-2.20
2023-01-29T19:12:26.744Z,-2.10
2023-01-29T19:14:57.085Z,-2.20
2023-01-29T19:17:26.933Z,-2.10
2023-01-29T19:20:02.322Z,-1.90
2023-01-29T19:22:32.306Z,-2.10
2023-01-29T19:25:06.259Z,-2.00
2023-01-29T19:27:36.110Z,-2.10
2023-01-29T19:30:07.377Z,-2.20
2023-01-29T19:32:37.234Z,-1.90
2023-01-29T19:35:07.543Z,-2.30
2023-01-29T19:37:37.482Z,-2.00
2023-01-29T19:40:12.521Z,-2.10
2023-01-29T19:42:42.272Z,-2.20
2023-01-29T19:45:13.272Z,-2.10
2023-01-29T19:47:43.908Z,-2.20
2023-01-29T19:50:14.745Z,-2.10
2023-01-29T19:52:52.044Z,-2.20
2023-01-29T19:55:25.639Z,-2.20
2023-01-29T19:57:57.126Z,-2.10
2023-01-29T20:00:27.625Z,-2.10
2023-01-29T20:02:57.425Z,-2.20
2023-01-29T20:05:27.974Z,-2.20
2023-01-29T20:07:57.820Z,-2.30
2023-01-29T20:10:31.160Z,-2.00
2023-01-29T20:13:00.939Z,-1.90
2023-01-29T20:15:31.127Z,-2.10
2023-01-29T20:18:01.560Z,-2.20
2023-01-29T20:20:32.649Z,-1.90
2023-01-29T20:23:02.701Z,-2.00
2023-01-29T20:25:36.487Z,-2.10
2023-01-29T20:28:07.765Z,-2.30
2023-01-29T20:30:38.836Z,-2.20
2023-01-29T20:33:09.347Z,-2.20
2023-01-29T20:35:41.317Z,-2.00
2023-01-29T20:38:11.104Z,-2.00
2023-01-29T20:40:43.832Z,-2.40
2023-01-29T20:43:13.569Z,-2.30
2023-01-29T20:45:44.007Z,-1.90
2023-01-29T20:48:13.830Z,-2.20
2023-01-29T20:50:44.455Z,-2.20
2023-01-29T20:53:14.372Z,-2.30
2023-01-29T20:55:47.599Z,-2.10
2023-01-29T20:58:17.508Z,-2.10
2023-01-29T21:00:48.046Z,-2.30
2023-01-29T21:03:18.071Z,-2.20
2023-01-29T21:05:48.308Z,-2.00
2023-01-29T21:08:18.076Z,-2.10
2023-01-29T21:10:52.303Z,-2.20
2023-01-29T21:13:22.196Z,-2.30
2023-01-29T21:15:52.916Z,-2.30
2023-01-29T21:18:22.831Z,-2.20
2023-01-29T21:20:53.433Z,-2.20
2023-01-29T21:23:23.709Z,-2.30
2023-01-29T21:25:57.266Z,-2.50
2023-01-29T21:28:27.100Z,-2.20
2023-01-29T21:31:06.169Z,-2.20
2023-01-29T21:33:36.465Z,-2.30
2023-01-29T21:36:11.571Z,-2.40
2023-01-29T21:38:41.629Z,-2.40
2023-01-29T21:41:14.277Z,-2.40
2023-01-29T21:43:41.503Z,-2.30
2023-01-29T21:46:14.463Z,-2.10
2023-01-29T21:48:44.268Z,-2.20
2023-01-29T21:51:14.497Z,-2.30
2023-01-29T21:53:44.274Z,-2.20
2023-01-29T21:56:20.300Z,-2.30
2023-01-29T21:58:50.115Z,-2.20
2023-01-29T22:01:38.086Z,-2.40
2023-01-29T22:04:09.821Z,-2.20
2023-01-29T22:06:39.977Z,-2.30
2023-01-29T22:09:09.944Z,-2.10
2023-01-29T22:11:43.702Z,-2.10
2023-01-29T22:14:13.515Z,-2.40
2023-01-29T22:16:43.719Z,-2.20
2023-01-29T22:19:13.678Z,-2.00
2023-01-29T22:21:44.296Z,-2.10
2023-01-29T22:24:14.292Z,-2.10
2023-01-29T22:26:48.649Z,-1.90
2023-01-29T22:29:19.746Z,-2.00
2023-01-29T22:31:50.265Z,-2.00
2023-01-29T22:34:20.017Z,-2.10
2023-01-29T22:36:50.851Z,-2.00
2023-01-29T22:39:20.639Z,-2.10
2023-01-29T22:41:53.635Z,-1.90
2023-01-29T22:44:23.410Z,-1.90
2023-01-29T22:46:53.746Z,-2.30
2023-01-29T22:49:25.208Z,-2.00
2023-01-29T22:52:10.301Z,-2.10
2023-01-29T22:54:40.683Z,-2.10
2023-01-29T22:57:15.399Z,-2.20
2023-01-29T22:59:45.358Z,-2.30
2023-01-29T23:02:15.427Z,-2.00
2023-01-29T23:04:45.776Z,-2.00
2023-01-29T23:07:15.933Z,-2.00
2023-01-29T23:09:45.721Z,-2.10
2023-01-29T23:12:19.125Z,-2.20
2023-01-29T23:14:49.750Z,-1.90
2023-01-29T23:17:20.361Z,-2.10
2023-01-29T23:19:50.483Z,-2.20
2023-01-29T23:22:21.187Z,-2.10
2023-01-29T23:24:51.838Z,-1.90
2023-01-29T23:27:22.222Z,-2.10
2023-01-29T23:29:52.646Z,-2.20
2023-01-29T23:32:24.604Z,-2.20
2023-01-29T23:34:54.710Z,-2.00
2023-01-29T23:37:24.829Z,-2.00
2023-01-29T23:39:55.287Z,-1.80
2023-01-29T23:42:28.470Z,-1.80
2023-01-29T23:44:58.788Z,-1.80
2023-01-29T23:47:29.114Z,-1.80
2023-01-29T23:49:59.132Z,-1.90
2023-01-29T23:52:29.995Z,-2.00
2023-01-29T23:54:59.988Z,-2.10
2023-01-29T23:57:33.487Z,-2.00
